Time;durP1;ratioP1;P1;durP2;ratioP2;P2;SDS_P1;SDS_P2;PMS_P1;PMS_P2;Temp;Humidity;BMP_temperature;BMP_pressure;BME280_temperature;BME280_humidity;BME280_pressure;Samples;Min_cycle;Max_cycle;Signal;HPM_P1;HPM_P2
2023/05/29 00:00:47;;;;;;;4.88;3.63;;;;;;;16.12;100.00;100224.69;5087495;28;20039;-67
2023/05/29 00:03:12;;;;;;;14.15;4.55;;;;;;;16.19;100.00;100226.28;5087968;28;20032;-66
2023/05/29 00:05:38;;;;;;;12.05;4.00;;;;;;;15.76;100.00;100207.06;5087295;28;20035;-66
2023/05/29 00:08:05;;;;;;;4.97;3.55;;;;;;;16.10;100.00;100222.09;5087709;28;20370;-67
2023/05/29 00:10:31;;;;;;;4.50;3.30;;;;;;;15.92;100.00;100223.44;5087687;28;20043;-66
2023/05/29 00:12:57;;;;;;;6.80;4.50;;;;;;;15.99;100.00;100237.34;5038524;28;20044;-67
2023/05/29 00:15:23;;;;;;;6.55;4.07;;;;;;;15.90;100.00;100213.81;5086906;28;20036;-67
2023/05/29 00:17:49;;;;;;;4.88;3.17;;;;;;;16.03;100.00;100233.75;5087357;28;20077;-66
2023/05/29 00:20:14;;;;;;;5.95;3.67;;;;;;;15.89;100.00;100241.16;5085814;28;20361;-66
2023/05/29 00:22:40;;;;;;;5.35;3.65;;;;;;;15.86;100.00;100235.94;5087174;28;20040;-67
2023/05/29 00:25:07;;;;;;;5.97;3.85;;;;;;;16.03;100.00;100239.03;5087209;28;20069;-67
2023/05/29 00:27:33;;;;;;;6.13;4.47;;;;;;;15.90;100.00;100209.38;5087527;28;20483;-66
2023/05/29 00:30:00;;;;;;;6.90;3.17;;;;;;;15.80;100.00;100214.03;5074687;28;20086;-66
2023/05/29 00:32:27;;;;;;;5.15;3.55;;;;;;;15.91;100.00;100245.50;5086529;28;20067;-66
2023/05/29 00:34:53;;;;;;;5.80;3.97;;;;;;;15.73;100.00;100222.13;5087143;28;20035;-67
2023/05/29 00:37:21;;;;;;;5.53;3.95;;;;;;;15.86;100.00;100251.81;5056461;28;20056;-67
2023/05/29 00:39:47;;;;;;;6.88;4.20;;;;;;;15.74;100.00;100253.00;5082656;28;20139;-67
2023/05/29 00:42:12;;;;;;;6.60;4.40;;;;;;;15.80;100.00;100261.66;5087100;28;20032;-66
2023/05/29 00:44:37;;;;;;;5.32;3.65;;;;;;;15.97;100.00;100245.34;5068981;28;20048;-67
2023/05/29 00:47:03;;;;;;;6.22;3.38;;;;;;;15.92;100.00;100223.44;5080379;28;20062;-68
2023/05/29 00:49:29;;;;;;;5.22;3.50;;;;;;;16.15;100.00;100251.94;5083219;28;20028;-67
2023/05/29 00:51:56;;;;;;;5.95;3.95;;;;;;;15.99;100.00;100222.38;5087578;28;20040;-67
2023/05/29 00:54:26;;;;;;;8.90;4.13;;;;;;;15.83;100.00;100213.09;5068273;28;20025;-67
2023/05/29 00:56:52;;;;;;;4.88;3.80;;;;;;;15.83;100.00;100228.97;5082777;28;20056;-67
2023/05/29 00:59:21;;;;;;;6.35;4.53;;;;;;;15.71;100.00;100205.41;5069128;28;20056;-66
2023/05/29 01:01:48;;;;;;;4.82;3.53;;;;;;;15.97;100.00;100232.13;5086050;28;20050;-67
2023/05/29 01:04:15;;;;;;;7.20;4.55;;;;;;;16.01;100.00;100225.84;5075480;28;20031;-67
2023/05/29 01:06:41;;;;;;;5.75;3.55;;;;;;;16.05;100.00;100234.56;5087029;28;20056;-67
2023/05/29 01:09:06;;;;;;;7.95;4.15;;;;;;;16.00;100.00;100239.97;5087323;28;20374;-67
2023/05/29 01:11:41;;;;;;;6.82;3.35;;;;;;;16.00;100.00;100244.41;5086951;28;20040;-66
2023/05/29 01:14:09;;;;;;;5.03;2.95;;;;;;;15.90;100.00;100248.19;5086837;28;20047;-66
2023/05/29 01:16:44;;;;;;;6.07;4.07;;;;;;;16.03;100.00;100247.84;5086722;28;20030;-66
2023/05/29 01:19:22;;;;;;;5.25;3.55;;;;;;;16.00;100.00;100250.56;5086305;28;20062;-66
2023/05/29 01:22:20;;;;;;;5.60;3.35;;;;;;;16.06;100.00;100244.25;5086812;28;20682;-66
2023/05/29 01:24:50;;;;;;;5.03;3.22;;;;;;;15.97;100.00;100245.34;5015254;28;20054;-66
2023/05/29 01:27:18;;;;;;;6.68;3.30;;;;;;;15.70;100.00;100262.75;5007192;28;20497;-67
2023/05/29 01:29:46;;;;;;;4.57;2.88;;;;;;;15.43;100.00;100208.72;5013967;28;20033;-67
2023/05/29 01:32:12;;;;;;;6.28;3.50;;;;;;;15.69;100.00;100223.97;4991323;28;20045;-66
2023/05/29 01:34:37;;;;;;;5.10;3.22;;;;;;;15.95;100.00;100254.25;5007916;28;20049;-66
2023/05/29 01:37:03;;;;;;;6.43;3.97;;;;;;;15.78;100.00;100247.59;5020736;28;20037;-66
2023/05/29 01:39:31;;;;;;;5.88;3.78;;;;;;;15.66;100.00;100229.31;5008054;28;20380;-66
2023/05/29 01:41:59;;;;;;;6.25;3.63;;;;;;;15.57;100.00;100233.06;5011825;28;20056;-66
2023/05/29 01:44:25;;;;;;;5.38;3.47;;;;;;;15.50;100.00;100222.63;5015969;28;20100;-65
2023/05/29 01:46:52;;;;;;;8.23;5.22;;;;;;;15.55;100.00;100224.28;5007475;28;20087;-66
2023/05/29 01:49:18;;;;;;;6.18;3.17;;;;;;;15.61;100.00;100224.13;4990911;28;20038;-67
2023/05/29 01:51:44;;;;;;;5.60;4.03;;;;;;;15.63;100.00;100224.97;5008179;28;20104;-66
2023/05/29 01:54:09;;;;;;;5.85;3.83;;;;;;;15.43;100.00;100191.97;5010452;28;20045;-66
2023/05/29 01:56:36;;;;;;;6.22;3.75;;;;;;;15.37;100.00;100185.06;5017782;28;20046;-66
2023/05/29 01:59:03;;;;;;;5.70;3.72;;;;;;;15.36;100.00;100193.91;5010327;28;20038;-66
2023/05/29 02:01:28;;;;;;;7.72;4.05;;;;;;;15.50;100.00;100210.31;5059811;28;20071;-66
2023/05/29 02:03:54;;;;;;;5.50;3.35;;;;;;;15.46;100.00;100205.13;5076485;28;20075;-67
2023/05/29 02:06:20;;;;;;;5.10;3.30;;;;;;;15.55;100.00;100211.06;5090135;28;20739;-66
2023/05/29 02:08:46;;;;;;;8.63;3.72;;;;;;;15.50;100.00;100212.97;5085772;28;20104;-66
2023/05/29 02:11:12;;;;;;;6.75;3.75;;;;;;;15.49;100.00;100197.13;5080452;28;20024;-66
2023/05/29 02:13:37;;;;;;;6.47;4.53;;;;;;;15.45;100.00;100208.66;5089703;28;20032;-66
2023/05/29 02:16:03;;;;;;;7.82;3.47;;;;;;;15.28;100.00;100206.41;5089684;28;20036;-66
2023/05/29 02:18:28;;;;;;;5.35;3.30;;;;;;;15.28;100.00;100202.00;5068150;28;20109;-66
2023/05/29 02:20:54;;;;;;;6.22;3.63;;;;;;;15.31;100.00;100203.69;5086305;28;20032;-66
2023/05/29 02:23:19;;;;;;;7.80;5.15;;;;;;;15.29;100.00;100203.75;5089413;28;20032;-66
2023/05/29 02:25:46;;;;;;;7.80;4.43;;;;;;;15.03;100.00;100172.63;5089652;28;20055;-66
2023/05/29 02:28:11;;;;;;;7.50;3.55;;;;;;;15.24;100.00;100189.78;5078952;28;20111;-66
2023/05/29 02:30:37;;;;;;;6.43;4.55;;;;;;;15.19;100.00;100175.75;5073319;28;20028;-66
2023/05/29 02:33:02;;;;;;;9.52;4.85;;;;;;;15.41;100.00;100202.59;5089827;28;20043;-67
2023/05/29 02:35:28;;;;;;;5.30;3.25;;;;;;;15.28;100.00;100169.41;5084952;28;20533;-67
2023/05/29 02:37:54;;;;;;;4.82;2.97;;;;;;;15.48;100.00;100214.75;5080312;28;20050;-66
2023/05/29 02:40:20;;;;;;;6.85;4.78;;;;;;;15.09;100.00;100169.81;5089214;28;20047;-66
2023/05/29 02:42:47;;;;;;;6.68;3.65;;;;;;;15.10;100.00;100190.06;5088342;28;20746;-66
2023/05/29 02:45:12;;;;;;;8.73;3.92;;;;;;;15.22;100.00;100212.72;5090710;28;20527;-67
2023/05/29 02:47:38;;;;;;;5.93;4.07;;;;;;;15.25;100.00;100214.41;5090969;28;20024;-66
2023/05/29 02:50:05;;;;;;;6.80;4.35;;;;;;;15.10;100.00;100184.78;5088495;28;20119;-66
2023/05/29 02:52:32;;;;;;;7.10;3.70;;;;;;;15.30;100.00;100215.19;5088982;28;20039;-67
2023/05/29 02:54:58;;;;;;;8.18;4.63;;;;;;;15.24;100.00;100218.84;5088712;28;20415;-66
2023/05/29 02:57:24;;;;;;;8.85;6.00;;;;;;;15.14;100.00;100217.28;5088380;28;20080;-66
2023/05/29 02:59:50;;;;;;;4.70;3.45;;;;;;;15.17;100.00;100217.22;5077056;28;20056;-67
2023/05/29 03:02:15;;;;;;;6.57;4.95;;;;;;;15.30;100.00;100223.97;5048948;28;20569;-66
2023/05/29 03:04:41;;;;;;;7.25;4.80;;;;;;;15.36;100.00;100217.69;5087762;28;20533;-66
2023/05/29 03:07:06;;;;;;;5.47;3.80;;;;;;;15.46;100.00;100227.16;5087330;28;20040;-66
2023/05/29 03:09:32;;;;;;;5.53;3.47;;;;;;;15.59;100.00;100231.25;5087676;28;20040;-66
2023/05/29 03:11:57;;;;;;;6.80;4.28;;;;;;;15.51;100.00;100208.53;5087584;28;20024;-66
2023/05/29 03:14:23;;;;;;;5.63;3.45;;;;;;;15.42;100.00;100241.34;5087932;28;20047;-65
2023/05/29 03:16:50;;;;;;;5.70;3.58;;;;;;;15.52;100.00;100242.00;5047392;28;20538;-66
2023/05/29 03:19:15;;;;;;;8.93;3.85;;;;;;;15.50;100.00;100218.25;5039256;28;20762;-66
2023/05/29 03:21:41;;;;;;;7.10;4.05;;;;;;;15.71;100.00;100248.66;5064852;28;20048;-65
2023/05/29 03:24:06;;;;;;;7.13;3.25;;;;;;;15.66;100.00;100250.47;5064289;28;20463;-66
2023/05/29 03:26:32;;;;;;;5.55;3.85;;;;;;;15.75;100.00;100250.28;5063982;28;20044;-66
2023/05/29 03:28:57;;;;;;;4.35;2.70;;;;;;;15.27;100.00;100175.59;5047736;28;20041;-66
2023/05/29 03:31:23;;;;;;;5.68;3.28;;;;;;;15.74;100.00;100253.84;5044632;28;20565;-67
2023/05/29 03:33:49;;;;;;;5.47;3.38;;;;;;;15.63;100.00;100250.56;5044845;28;20439;-65
2023/05/29 03:36:16;;;;;;;6.68;3.33;;;;;;;15.72;100.00;100262.72;5044714;28;20223;-66
2023/05/29 03:38:43;;;;;;;5.55;4.03;;;;;;;15.45;100.00;100225.38;5046099;28;20051;-66
2023/05/29 03:41:08;;;;;;;5.18;3.33;;;;;;;15.78;100.00;100267.84;5064764;28;20044;-66
2023/05/29 03:43:34;;;;;;;8.23;4.60;;;;;;;15.75;100.00;100268.81;5064710;28;20110;-67
2023/05/29 03:46:00;;;;;;;7.38;4.25;;;;;;;15.82;100.00;100280.13;5048062;28;20134;-66
2023/05/29 03:48:25;;;;;;;6.57;3.67;;;;;;;15.73;100.00;100278.59;5081122;28;20043;-66
2023/05/29 03:50:51;;;;;;;6.07;3.90;;;;;;;15.12;100.00;100148.59;5086577;28;20100;-66
2023/05/29 03:53:16;;;;;;;6.93;4.00;;;;;;;15.54;100.00;100225.19;5087905;28;20051;-66
2023/05/29 03:55:41;;;;;;;5.53;3.60;;;;;;;15.86;100.00;100288.88;5073971;28;20055;-66
2023/05/29 03:58:07;;;;;;;7.60;4.30;;;;;;;15.90;100.00;100294.06;5087685;28;20040;-66
2023/05/29 04:00:32;;;;;;;4.93;3.15;;;;;;;15.71;100.00;100267.16;5084729;28;20195;-66
2023/05/29 04:02:58;;;;;;;5.57;3.65;;;;;;;15.98;100.00;100292.06;5067266;28;20036;-67
2023/05/29 04:05:23;;;;;;;5.57;2.67;;;;;;;15.91;100.00;100305.50;5083873;28;20028;-67
2023/05/29 04:07:49;;;;;;;6.63;3.95;;;;;;;15.96;100.00;100293.03;5069106;28;20354;-66
2023/05/29 04:10:15;;;;;;;4.35;2.42;;;;;;;15.99;100.00;100301.78;5083544;28;20040;-65
2023/05/29 04:12:40;;;;;;;4.20;3.35;;;;;;;15.94;100.00;100286.88;5077891;28;20032;-67
2023/05/29 04:15:06;;;;;;;4.55;3.03;;;;;;;15.83;100.00;100290.69;5087961;28;20032;-66
2023/05/29 04:17:32;;;;;;;5.50;3.60;;;;;;;15.85;100.00;100274.78;5077743;28;20036;-67
2023/05/29 04:19:58;;;;;;;6.68;4.43;;;;;;;16.02;100.00;100319.34;5083089;28;20085;-67
2023/05/29 04:22:23;;;;;;;6.68;3.88;;;;;;;16.05;100.00;100303.38;5086014;28;20035;-66
2023/05/29 04:24:49;;;;;;;6.05;3.17;;;;;;;16.07;100.00;100330.69;5075653;28;20389;-66
2023/05/29 04:27:14;;;;;;;4.72;3.22;;;;;;;16.20;100.00;100315.38;5087048;28;20157;-66
2023/05/29 04:29:42;;;;;;;5.68;3.40;;;;;;;16.04;100.00;100305.16;5078434;28;20028;-66
2023/05/29 04:32:09;;;;;;;6.20;3.60;;;;;;;16.14;100.00;100313.75;5067377;28;20029;-65
2023/05/29 04:34:35;;;;;;;5.10;3.28;;;;;;;16.25;100.00;100330.25;5067663;28;20059;-66
2023/05/29 04:37:02;;;;;;;8.02;3.90;;;;;;;16.24;100.00;100332.94;5083672;28;20028;-66
2023/05/29 04:39:28;;;;;;;6.32;4.07;;;;;;;16.30;100.00;100338.09;5087867;28;20111;-67
2023/05/29 04:41:53;;;;;;;6.80;3.75;;;;;;;16.23;100.00;100328.56;5087151;28;20068;-66
2023/05/29 04:44:19;;;;;;;6.07;3.13;;;;;;;16.22;100.00;100330.34;5087203;28;20035;-67
2023/05/29 04:46:44;;;;;;;6.38;3.83;;;;;;;16.25;100.00;100322.31;5086929;28;20260;-67
2023/05/29 04:49:12;;;;;;;5.88;4.03;;;;;;;16.25;100.00;100324.94;5086603;28;20039;-66
2023/05/29 04:51:40;;;;;;;4.72;2.97;;;;;;;16.43;100.00;100350.09;5086894;28;20105;-66
2023/05/29 04:54:06;;;;;;;6.65;3.40;;;;;;;16.51;100.00;100351.69;5084582;28;20044;-65
2023/05/29 04:56:32;;;;;;;7.15;4.18;;;;;;;16.58;100.00;100345.34;5075750;28;20064;-66
2023/05/29 04:58:58;;;;;;;7.53;4.38;;;;;;;16.53;100.00;100329.56;5085059;28;20756;-67
2023/05/29 05:01:25;;;;;;;4.40;2.83;;;;;;;16.74;100.00;100351.97;5068357;28;20450;-67
2023/05/29 05:03:52;;;;;;;6.72;4.55;;;;;;;16.82;100.00;100368.56;5086756;28;20419;-66
2023/05/29 05:06:18;;;;;;;6.28;4.10;;;;;;;16.75;100.00;100336.94;5078150;28;20631;-67
2023/05/29 05:08:44;;;;;;;8.35;3.42;;;;;;;17.04;100.00;100381.22;5070692;28;20040;-65
2023/05/29 05:11:09;;;;;;;12.75;3.55;;;;;;;17.06;100.00;100340.50;5081542;28;20043;-66
2023/05/29 05:13:35;;;;;;;6.53;4.75;;;;;;;17.61;100.00;100379.66;5091309;28;20051;-66
2023/05/29 05:16:01;;;;;;;7.82;3.53;;;;;;;18.05;100.00;100375.66;5090683;28;20032;-67
2023/05/29 05:18:26;;;;;;;5.13;2.80;;;;;;;17.96;100.00;100336.13;5090646;28;20036;-66
2023/05/29 05:20:51;;;;;;;4.22;2.58;;;;;;;18.72;100.00;100387.66;5089693;28;20043;-67
2023/05/29 05:23:17;;;;;;;5.45;2.50;;;;;;;18.60;100.00;100428.78;5090828;28;20036;-67
2023/05/29 05:25:42;;;;;;;4.30;2.80;;;;;;;18.40;100.00;100429.44;5090796;28;20025;-66
2023/05/29 05:28:08;;;;;;;4.97;3.03;;;;;;;18.05;100.00;100435.84;5090565;28;20032;-66
2023/05/29 05:30:34;;;;;;;12.63;3.35;;;;;;;17.96;100.00;100436.13;5076984;28;20025;-66
2023/05/29 05:32:59;;;;;;;3.53;1.92;;;;;;;17.88;100.00;100433.72;5090215;28;20529;-67
2023/05/29 05:35:25;;;;;;;4.05;2.83;;;;;;;17.61;100.00;100396.44;5090097;28;20388;-67
2023/05/29 05:37:50;;;;;;;4.82;2.20;;;;;;;17.57;100.00;100389.47;5089854;28;20024;-67
2023/05/29 05:40:16;;;;;;;4.60;2.42;;;;;;;17.56;100.00;100418.69;5086990;28;20063;-67
2023/05/29 05:42:41;;;;;;;5.47;3.33;;;;;;;17.61;100.00;100441.53;5080159;28;20035;-66
2023/05/29 05:45:08;;;;;;;4.07;2.28;;;;;;;17.22;100.00;100372.78;5053205;28;20089;-68
2023/05/29 05:47:33;;;;;;;4.22;2.47;;;;;;;17.47;100.00;100419.84;5089312;28;20024;-66
2023/05/29 05:49:59;;;;;;;2.53;1.50;;;;;;;17.75;100.00;100419.91;5091625;28;20768;-66
2023/05/29 05:52:25;;;;;;;3.55;2.00;;;;;;;17.90;100.00;100429.22;5087336;28;20057;-66
2023/05/29 05:54:51;;;;;;;5.15;2.55;;;;;;;17.92;100.00;100427.41;5085022;28;20495;-66
2023/05/29 05:57:16;;;;;;;4.40;2.45;;;;;;;17.93;100.00;100437.97;5081328;28;20052;-66
2023/05/29 05:59:42;;;;;;;5.07;2.45;;;;;;;18.00;100.00;100436.00;5076609;28;20080;-65
2023/05/29 06:02:07;;;;;;;3.78;2.05;;;;;;;18.12;100.00;100445.38;5081382;28;20134;-65
2023/05/29 06:04:33;;;;;;;4.20;2.25;;;;;;;18.12;100.00;100416.16;5042219;28;20887;-67
2023/05/29 06:06:58;;;;;;;4.03;2.33;;;;;;;18.03;100.00;100381.94;5079966;28;20663;-66
2023/05/29 06:09:24;;;;;;;4.35;2.42;;;;;;;18.03;100.00;100396.09;5076836;28;20784;-65
2023/05/29 06:11:50;;;;;;;5.32;2.20;;;;;;;18.46;100.00;100455.81;5071038;28;20507;-67
2023/05/29 06:14:16;;;;;;;3.25;2.45;;;;;;;18.48;100.00;100448.66;5088999;28;20040;-67
2023/05/29 06:16:42;;;;;;;2.53;1.38;;;;;;;18.50;100.00;100448.63;5089025;28;20043;-67
2023/05/29 06:19:08;;;;;;;3.63;1.70;;;;;;;18.44;100.00;100441.69;5088159;28;20028;-67
2023/05/29 06:21:33;;;;;;;4.15;2.25;;;;;;;18.54;100.00;100427.22;5070628;28;20035;-67
2023/05/29 06:23:59;;;;;;;5.05;2.20;;;;;;;18.61;100.00;100406.59;5089036;28;20040;-67
2023/05/29 06:26:28;;;;;;;3.25;1.75;;;;;;;19.06;100.00;100456.53;5088585;28;20040;-65
2023/05/29 06:28:53;;;;;;;3.40;1.75;;;;;;;19.13;100.00;100458.06;5088992;28;20115;-66
2023/05/29 06:31:19;;;;;;;5.18;2.15;;;;;;;18.77;100.00;100422.94;5080113;28;20033;-67
2023/05/29 06:33:45;;;;;;;4.13;1.67;;;;;;;18.76;100.00;100464.63;5082465;28;20540;-67
2023/05/29 06:36:11;;;;;;;3.80;2.03;;;;;;;19.01;100.00;100463.81;5077934;28;20032;-67
2023/05/29 06:38:36;;;;;;;3.97;1.92;;;;;;;19.19;100.00;100475.59;5090143;28;20028;-67
2023/05/29 06:41:02;;;;;;;4.47;2.03;;;;;;;19.63;100.00;100464.31;5092872;28;20038;-68
2023/05/29 06:43:28;;;;;;;3.55;1.90;;;;;;;19.18;100.00;100304.47;5090991;28;20043;-67
2023/05/29 06:45:53;;;;;;;5.88;3.00;;;;;;;20.40;100.00;100465.78;5088683;28;20453;-67
2023/05/29 06:48:19;;;;;;;3.83;1.83;;;;;;;20.29;100.00;100464.47;5085226;28;20028;-67
2023/05/29 06:50:45;;;;;;;3.40;2.05;;;;;;;20.20;100.00;100396.44;5082770;28;20024;-66
2023/05/29 06:53:11;;;;;;;3.28;1.77;;;;;;;20.66;100.00;100456.75;5081571;28;20115;-67
2023/05/29 06:55:36;;;;;;;3.85;1.83;;;;;;;21.01;100.00;100451.75;5067833;28;20792;-67
2023/05/29 06:58:02;;;;;;;5.55;2.90;;;;;;;20.92;100.00;100465.47;5068080;28;20044;-66
2023/05/29 07:00:28;;;;;;;4.07;1.38;;;;;;;20.73;100.00;100453.84;5063517;28;20047;-67
2023/05/29 07:02:54;;;;;;;4.20;2.28;;;;;;;20.79;100.00;100464.25;5080896;28;20036;-67
2023/05/29 07:05:19;;;;;;;6.97;1.75;;;;;;;20.83;100.00;100445.38;5082311;28;20028;-68
2023/05/29 07:07:45;;;;;;;3.55;1.67;;;;;;;20.73;100.00;100457.38;5088533;28;20127;-67
2023/05/29 07:10:10;;;;;;;2.63;1.30;;;;;;;21.18;100.00;100468.84;5069914;28;20047;-66
2023/05/29 07:12:36;;;;;;;4.07;2.58;;;;;;;21.01;100.00;100458.91;5088212;28;20039;-66
2023/05/29 07:15:01;;;;;;;4.38;2.15;;;;;;;20.65;100.00;100438.19;5087837;28;20032;-67
2023/05/29 07:17:27;;;;;;;8.05;3.08;;;;;;;20.94;100.00;100473.44;5088360;28;20035;-67
2023/05/29 07:19:53;;;;;;;3.28;1.88;;;;;;;20.77;100.00;100472.34;5087480;28;20040;-66
2023/05/29 07:22:19;;;;;;;2.22;1.35;;;;;;;21.01;100.00;100466.91;5069607;28;20501;-66
2023/05/29 07:24:45;;;;;;;3.60;2.13;;;;;;;21.09;100.00;100462.09;5081182;28;20090;-66
2023/05/29 07:27:10;;;;;;;4.63;2.03;;;;;;;20.98;100.00;100467.91;5050040;28;20036;-67
2023/05/29 07:29:36;;;;;;;4.03;2.50;;;;;;;21.03;100.00;100460.56;5055518;28;20039;-67
2023/05/29 07:32:01;;;;;;;6.97;1.92;;;;;;;21.07;100.00;100467.53;5085793;28;20140;-68
2023/05/29 07:34:27;;;;;;;5.13;2.58;;;;;;;21.38;100.00;100468.00;5055919;28;20039;-68
2023/05/29 07:37:11;;;;;;;3.90;2.13;;;;;;;21.03;100.00;100457.03;5086573;28;20720;-68
2023/05/29 07:39:36;;;;;;;3.53;2.05;;;;;;;21.19;100.00;100434.09;5086935;28;20039;-67
2023/05/29 07:42:02;;;;;;;2.90;1.70;;;;;;;21.32;100.00;100477.13;5087428;28;20040;-67
2023/05/29 07:44:28;;;;;;;3.38;1.80;;;;;;;21.13;100.00;100471.72;5087110;28;20032;-66
2023/05/29 07:46:53;;;;;;;5.05;2.60;;;;;;;20.98;100.00;100437.69;5086005;28;20035;-67
2023/05/29 07:49:22;;;;;;;3.38;1.85;;;;;;;21.45;100.00;100466.81;5085512;28;20031;-66
2023/05/29 07:51:47;;;;;;;3.67;2.20;;;;;;;21.87;100.00;100463.16;5078598;28;20040;-67
2023/05/29 07:54:13;;;;;;;5.78;2.25;;;;;;;21.06;100.00;100468.44;5080736;28;20047;-67
2023/05/29 07:56:40;;;;;;;2.63;1.20;;;;;;;21.40;100.00;100475.03;5078826;28;20048;-67
2023/05/29 07:59:07;;;;;;;4.85;2.72;;;;;;;21.67;100.00;100480.94;5066992;28;20525;-66
2023/05/29 08:01:33;;;;;;;6.82;2.88;;;;;;;21.73;100.00;100468.22;5076187;28;20556;-68
2023/05/29 08:03:58;;;;;;;5.78;2.88;;;;;;;21.81;100.00;100474.09;5086789;28;20036;-68
2023/05/29 08:06:24;;;;;;;3.03;1.63;;;;;;;;;;5034367;28;20443;-67
2023/05/29 08:08:50;;;;;;;6.25;2.70;;;;;;;20.98;100.00;100483.91;5083945;28;20039;-67
2023/05/29 08:11:16;;;;;;;4.45;2.40;;;;;;;21.25;100.00;100476.50;5077103;28;20067;-67
2023/05/29 08:13:41;;;;;;;3.95;2.45;;;;;;;21.05;100.00;100439.16;5068816;28;20436;-67
2023/05/29 08:16:07;;;;;;;3.72;1.52;;;;;;;21.29;100.00;100424.75;5086925;28;20093;-67
2023/05/29 08:18:32;;;;;;;4.25;2.03;;;;;;;21.28;100.00;100456.81;5037640;28;20370;-68
2023/05/29 08:20:58;;;;;;;5.32;2.35;;;;;;;21.53;100.00;100464.66;5066545;28;20044;-68
2023/05/29 08:23:24;;;;;;;5.93;3.38;;;;;;;21.90;100.00;100482.56;5087189;28;20024;-67
2023/05/29 08:25:50;;;;;;;7.05;2.90;;;;;;;22.08;100.00;100486.19;5087005;28;20755;-66
2023/05/29 08:28:15;;;;;;;5.68;2.72;;;;;;;21.87;100.00;100439.97;5087446;28;20035;-66
2023/05/29 08:30:41;;;;;;;4.40;3.00;;;;;;;21.77;100.00;100476.03;5086950;28;20095;-67
2023/05/29 08:33:06;;;;;;;3.85;2.33;;;;;;;21.86;100.00;100443.56;5087306;28;20754;-68
2023/05/29 08:35:32;;;;;;;4.50;2.85;;;;;;;21.87;100.00;100474.69;5083819;28;20521;-67
2023/05/29 08:37:58;;;;;;;4.20;2.08;;;;;;;22.44;100.00;100481.88;5058907;28;20036;-67
2023/05/29 08:40:24;;;;;;;3.05;1.73;;;;;;;22.29;100.00;100488.84;5086683;28;20028;-66
2023/05/29 08:43:15;;;;;;;4.97;2.53;;;;;;;21.92;100.00;100493.19;5080636;28;20695;-67
2023/05/29 08:45:43;;;;;;;5.07;3.13;;;;;;;21.97;100.00;100485.81;5078580;28;20024;-67
2023/05/29 08:48:10;;;;;;;14.52;2.90;;;;;;;21.54;100.00;100407.66;5090783;28;20044;-67
2023/05/29 08:50:42;;;;;;;9.60;4.72;;;;;;;21.70;100.00;100445.19;5089678;28;20157;-66
2023/05/29 08:53:09;;;;;;;5.45;2.25;;;;;;;22.70;100.00;100470.75;5090520;28;20032;-67
2023/05/29 08:55:35;;;;;;;3.10;1.85;;;;;;;23.21;100.00;100484.31;5090390;28;20047;-66
2023/05/29 08:58:01;;;;;;;3.90;2.83;;;;;;;22.73;100.00;100469.75;5034597;28;20048;-66
2023/05/29 09:00:29;;;;;;;4.15;2.85;;;;;;;23.51;100.00;100468.47;5071018;28;20445;-66
2023/05/29 09:02:55;;;;;;;4.68;2.53;;;;;;;22.84;100.00;100459.38;5090668;28;20032;-66
2023/05/29 09:05:21;;;;;;;4.47;2.47;;;;;;;22.52;100.00;100466.31;5040949;28;20094;-68
2023/05/29 09:07:49;;;;;;;4.88;2.45;;;;;;;22.51;100.00;100475.28;5090592;28;20036;-65
2023/05/29 09:10:15;;;;;;;5.10;2.65;;;;;;;22.91;100.00;100459.94;5090275;28;20473;-66
2023/05/29 09:12:41;;;;;;;6.43;2.10;;;;;;;23.60;100.00;100459.06;5090220;28;20073;-67
2023/05/29 09:15:27;;;;;;;4.93;2.53;;;;;;;23.98;100.00;100458.84;5089958;28;20040;-67
2023/05/29 09:17:54;;;;;;;6.65;4.45;;;;;;;23.34;100.00;100426.50;5088849;28;20124;-66
2023/05/29 09:20:24;;;;;;;5.95;2.75;;;;;;;23.77;100.00;100456.38;5080207;28;20488;-66
2023/05/29 09:23:05;;;;;;;4.95;1.92;;;;;;;24.43;100.00;100457.19;5089011;28;20130;-67
2023/05/29 09:25:32;;;;;;;6.78;3.83;;;;;;;25.12;100.00;100458.56;5089973;28;20044;-66
2023/05/29 09:28:05;;;;;;;5.25;2.83;;;;;;;24.14;100.00;100474.91;5089523;28;20036;-67
2023/05/29 09:30:31;;;;;;;4.35;2.10;;;;;;;22.99;100.00;100436.34;5089507;28;20361;-66
2023/05/29 09:33:00;;;;;;;4.70;2.60;;;;;;;22.82;100.00;100457.72;5081753;28;20047;-66
2023/05/29 09:35:25;;;;;;;3.60;2.33;;;;;;;22.41;100.00;100444.59;5084731;28;20040;-65
2023/05/29 09:37:52;;;;;;;4.10;2.17;;;;;;;22.78;100.00;100457.03;5062337;28;20135;-67
2023/05/29 09:40:17;;;;;;;3.10;1.92;;;;;;;22.79;100.00;100445.38;5085389;28;20092;-67
2023/05/29 09:42:43;;;;;;;6.82;3.20;;;;;;;22.48;100.00;100457.59;5089807;28;20032;-68
2023/05/29 09:45:09;;;;;;;10.43;3.35;;;;;;;22.59;100.00;100451.69;5089811;28;20493;-67
2023/05/29 09:47:35;;;;;;;2.88;1.90;;;;;;;22.63;100.00;100452.44;5089419;28;20114;-67
2023/05/29 09:50:01;;;;;;;3.65;2.28;;;;;;;22.29;100.00;100452.28;5088828;28;20036;-66
2023/05/29 09:52:30;;;;;;;2.90;1.40;;;;;;;22.24;100.00;100440.94;5088888;28;20504;-67
2023/05/29 09:54:56;;;;;;;4.20;2.20;;;;;;;22.57;100.00;100447.38;5089362;28;20085;-66
2023/05/29 09:57:23;;;;;;;6.22;2.67;;;;;;;22.40;100.00;100441.03;5074669;28;20513;-66
2023/05/29 09:59:51;;;;;;;4.93;2.65;;;;;;;22.37;100.00;100416.28;5068631;28;20048;-68
2023/05/29 10:02:17;;;;;;;6.28;2.25;;;;;;;22.69;100.00;100436.09;5071327;28;20043;-66
2023/05/29 10:04:44;;;;;;;5.20;2.55;;;;;;;23.20;100.00;100442.41;5089596;28;20549;-67
2023/05/29 10:07:25;;;;;;;3.15;1.95;;;;;;;23.32;100.00;100444.47;5067903;28;20043;-66
2023/05/29 10:09:55;;;;;;;5.72;2.13;;;;;;;24.02;100.00;100428.22;5069121;28;20030;-66
2023/05/29 10:12:22;;;;;;;5.90;2.45;;;;;;;23.25;100.00;100410.03;5068597;28;20036;-66
2023/05/29 10:14:50;;;;;;;3.95;1.92;;;;;;;22.56;100.00;100425.13;5068573;28;20134;-66
2023/05/29 10:17:18;;;;;;;3.50;2.55;;;;;;;23.30;100.00;100392.81;5075855;28;20035;-66
2023/05/29 10:19:46;;;;;;;4.20;2.60;;;;;;;24.15;100.00;100413.16;5079798;28;20047;-67
2023/05/29 10:22:13;;;;;;;5.00;2.90;;;;;;;23.93;100.00;100436.78;5071226;28;20040;-66
2023/05/29 10:24:39;;;;;;;3.63;2.60;;;;;;;24.17;95.00;100430.03;5088764;28;20401;-66
2023/05/29 10:27:05;;;;;;;4.63;2.10;;;;;;;24.32;94.78;100398.78;5088595;28;20032;-66
2023/05/29 10:29:49;;;;;;;4.47;1.58;;;;;;;25.11;88.13;100394.22;5069615;28;20035;-66
2023/05/29 10:32:37;;;;;;;3.20;2.00;;;;;;;25.03;89.97;100421.53;5065211;28;20138;-66
2023/05/29 10:35:27;;;;;;;4.13;2.22;;;;;;;24.00;100.00;100425.63;5077590;28;20052;-66
2023/05/29 10:38:08;;;;;;;4.35;2.47;;;;;;;23.14;100.00;100427.53;5078288;28;20036;-67
2023/05/29 10:40:33;;;;;;;4.40;2.58;;;;;;;24.33;97.39;100411.28;5088143;28;20489;-66
2023/05/29 10:42:59;;;;;;;2.78;1.67;;;;;;;23.43;100.00;100435.00;5077453;28;20044;-68
2023/05/29 10:45:35;;;;;;;9.00;2.45;;;;;;;23.35;100.00;100428.22;5067694;28;20028;-66
2023/05/29 10:48:08;;;;;;;3.55;2.08;;;;;;;24.64;97.56;100420.25;5065195;28;20485;-68
2023/05/29 10:50:38;;;;;;;4.32;2.13;;;;;;;25.37;92.22;100423.06;5087170;28;20151;-67
2023/05/29 10:53:06;;;;;;;3.17;2.10;;;;;;;24.12;89.24;100351.69;5087907;28;20039;-67
2023/05/29 10:55:39;;;;;;;3.60;2.30;;;;;;;24.50;94.15;100418.38;5087667;28;20119;-66
2023/05/29 10:58:08;;;;;;;;;;;;;;;24.69;90.59;100422.66;5076123;28;20039;-66
2023/05/29 11:00:41;;;;;;;5.03;2.00;;;;;;;24.50;91.64;100406.78;5088230;28;19912;-66
2023/05/29 11:03:08;;;;;;;3.80;2.13;;;;;;;24.53;93.34;100403.91;5087919;28;20035;-66
2023/05/29 11:05:33;;;;;;;5.05;3.10;;;;;;;24.93;90.87;100410.47;5088340;28;20117;-67
2023/05/29 11:08:03;;;;;;;4.15;2.03;;;;;;;25.31;85.02;100377.78;5088294;28;20466;-66
2023/05/29 11:10:46;;;;;;;6.70;2.85;;;;;;;24.91;91.54;100388.25;5088091;28;20127;-67
2023/05/29 11:13:25;;;;;;;2.72;1.58;;;;;;;24.50;89.84;100394.22;5075553;28;20139;-67
2023/05/29 11:16:19;;;;;;;5.45;2.42;;;;;;;25.06;85.44;100399.88;5076339;28;20047;-67
2023/05/29 11:18:49;;;;;;;4.13;2.25;;;;;;;24.29;92.96;100355.22;5005023;28;20068;-66